Time;durP1;ratioP1;P1;durP2;ratioP2;P2;SDS_P1;SDS_P2;PMS_P1;PMS_P2;Temp;Humidity;BMP_temperature;BMP_pressure;BME280_temperature;BME280_humidity;BME280_pressure;Samples;Min_cycle;Max_cycle;Signal;HPM_P1;HPM_P2
2021/08/18 00:01:11;;;;;;;23.15;17.10;;;13.60;99.90;;;;;;12531098;28;20170;-85
2021/08/18 00:07:13;;;;;;;21.17;15.85;;;13.60;99.90;;;;;;12515748;28;20484;-85
2021/08/18 00:13:16;;;;;;;19.08;15.02;;;13.70;99.90;;;;;;12529935;28;20075;-85
2021/08/18 00:19:18;;;;;;;19.15;14.30;;;13.60;99.90;;;;;;12528108;28;20068;-84
2021/08/18 00:25:20;;;;;;;21.35;16.20;;;13.70;99.90;;;;;;12533062;28;20045;-84
2021/08/18 00:31:22;;;;;;;18.27;14.18;;;13.70;99.90;;;;;;12530478;28;20160;-85
2021/08/18 00:37:24;;;;;;;18.58;14.15;;;13.80;99.90;;;;;;12533902;28;20052;-85
2021/08/18 00:43:26;;;;;;;17.23;13.30;;;13.90;99.90;;;;;;12530697;28;20074;-84
2021/08/18 00:49:28;;;;;;;16.30;11.95;;;14.00;99.90;;;;;;12537184;28;20094;-84
2021/08/18 00:55:30;;;;;;;15.35;12.20;;;14.10;99.90;;;;;;12531106;28;20610;-85
2021/08/18 01:01:32;;;;;;;15.45;11.52;;;14.20;99.90;;;;;;12529077;28;20128;-84
2021/08/18 01:07:35;;;;;;;17.00;13.07;;;14.10;99.90;;;;;;12545651;28;20061;-84
2021/08/18 01:13:37;;;;;;;16.98;12.35;;;14.20;99.90;;;;;;12546000;28;20144;-84
2021/08/18 01:19:39;;;;;;;18.20;12.70;;;14.50;99.90;;;;;;12542979;28;20110;-84
2021/08/18 01:25:43;;;;;;;17.17;12.63;;;14.40;99.90;;;;;;12540480;28;20097;-84
2021/08/18 01:31:45;;;;;;;19.60;13.50;;;14.40;99.90;;;;;;12539694;28;20133;-84
2021/08/18 01:37:48;;;;;;;20.48;13.88;;;14.30;99.90;;;;;;12535896;28;20106;-85
2021/08/18 01:43:49;;;;;;;20.85;13.95;;;14.00;99.90;;;;;;12536400;28;20066;-85
2021/08/18 01:49:51;;;;;;;20.88;15.35;;;14.10;99.90;;;;;;12526846;28;20458;-84
2021/08/18 01:55:54;;;;;;;22.75;15.43;;;14.10;99.90;;;;;;12537867;28;20049;-86
2021/08/18 02:01:56;;;;;;;20.38;15.10;;;14.10;99.90;;;;;;12534704;28;20128;-85
2021/08/18 02:07:58;;;;;;;21.77;15.40;;;14.10;99.90;;;;;;12535964;28;20111;-84
2021/08/18 02:14:00;;;;;;;20.55;14.45;;;14.10;99.90;;;;;;12536550;28;20044;-84
2021/08/18 02:20:04;;;;;;;20.63;15.43;;;14.10;99.90;;;;;;12535310;28;20481;-85
2021/08/18 02:26:06;;;;;;;20.88;15.25;;;14.30;99.90;;;;;;12524910;28;20778;-84
2021/08/18 02:32:08;;;;;;;22.20;15.88;;;14.20;99.90;;;;;;12539382;28;20069;-84
2021/08/18 02:38:10;;;;;;;23.38;15.38;;;14.10;99.90;;;;;;12534351;28;20097;-84
2021/08/18 02:44:12;;;;;;;21.63;15.40;;;14.20;99.90;;;;;;12529869;28;20044;-85
2021/08/18 02:50:15;;;;;;;22.15;16.65;;;14.20;99.90;;;;;;12532943;28;20045;-84
2021/08/18 02:56:17;;;;;;;25.03;16.97;;;14.40;99.90;;;;;;12527697;28;20138;-85
2021/08/18 03:02:20;;;;;;;24.48;16.52;;;14.20;99.90;;;;;;12527852;28;20115;-85
2021/08/18 03:08:22;;;;;;;21.27;15.85;;;14.20;99.90;;;;;;12535719;28;20040;-84
2021/08/18 03:14:24;;;;;;;21.92;15.32;;;14.30;99.90;;;;;;12534354;28;20052;-84
2021/08/18 03:20:26;;;;;;;22.05;15.07;;;14.30;99.90;;;;;;12539998;28;20177;-85
2021/08/18 03:26:28;;;;;;;19.52;15.35;;;14.40;99.90;;;;;;12531538;28;20048;-84
2021/08/18 03:32:29;;;;;;;20.55;15.45;;;14.50;99.90;;;;;;12538557;28;21005;-85
2021/08/18 03:38:31;;;;;;;19.83;14.50;;;14.40;99.90;;;;;;12538665;28;20077;-85
2021/08/18 03:44:33;;;;;;;19.85;14.55;;;14.30;99.90;;;;;;12535135;28;20103;-85
2021/08/18 03:50:35;;;;;;;20.10;13.38;;;14.20;99.90;;;;;;12529960;28;20045;-85
2021/08/18 03:56:36;;;;;;;19.55;13.52;;;14.00;99.90;;;;;;12519461;28;20061;-84
2021/08/18 04:02:39;;;;;;;18.40;11.85;;;14.10;99.90;;;;;;12531755;28;20098;-85
2021/08/18 04:08:41;;;;;;;20.40;13.60;;;13.90;99.90;;;;;;12531510;28;20049;-84
2021/08/18 04:14:43;;;;;;;17.80;12.27;;;14.00;99.90;;;;;;12529793;28;20499;-85
2021/08/18 04:20:45;;;;;;;16.25;11.90;;;14.00;99.90;;;;;;12534557;28;20167;-85
2021/08/18 04:26:47;;;;;;;19.38;12.20;;;14.00;99.90;;;;;;12523833;28;20045;-85
2021/08/18 04:32:49;;;;;;;16.17;11.77;;;13.90;99.90;;;;;;12532422;28;20093;-85
2021/08/18 04:38:52;;;;;;;18.42;11.73;;;13.80;99.90;;;;;;12536765;28;20104;-84
2021/08/18 04:44:53;;;;;;;14.43;10.48;;;13.90;99.90;;;;;;12533143;28;20044;-83
2021/08/18 04:50:55;;;;;;;15.55;9.52;;;14.10;99.90;;;;;;12514979;28;20037;-85
2021/08/18 04:56:57;;;;;;;13.40;9.70;;;14.30;99.90;;;;;;12533136;28;20060;-85
2021/08/18 05:02:59;;;;;;;14.27;9.80;;;14.40;99.90;;;;;;12545619;28;20105;-85
2021/08/18 05:09:02;;;;;;;13.43;10.07;;;14.20;99.90;;;;;;12531769;28;20050;-84
2021/08/18 05:15:05;;;;;;;13.55;10.10;;;14.30;99.90;;;;;;12461819;28;20060;-84
2021/08/18 05:21:07;;;;;;;13.48;10.40;;;14.50;99.90;;;;;;12458036;28;20053;-83
2021/08/18 05:27:09;;;;;;;14.10;10.02;;;14.50;99.90;;;;;;12462948;28;20049;-84
2021/08/18 05:33:10;;;;;;;13.55;9.48;;;14.60;99.90;;;;;;12466422;28;20042;-84
2021/08/18 05:39:12;;;;;;;14.30;9.65;;;14.60;99.90;;;;;;12458572;28;20147;-84
2021/08/18 05:45:14;;;;;;;13.45;9.50;;;14.60;99.90;;;;;;12457984;28;20086;-85
2021/08/18 05:51:16;;;;;;;13.32;9.85;;;14.70;99.90;;;;;;12453832;28;20061;-84
2021/08/18 05:57:18;;;;;;;15.75;10.20;;;14.90;99.90;;;;;;12464024;28;20049;-84
2021/08/18 06:03:20;;;;;;;12.68;10.20;;;14.90;99.90;;;;;;12461251;28;20068;-84
2021/08/18 06:09:22;;;;;;;14.27;10.10;;;15.00;99.90;;;;;;12487992;28;20477;-84
2021/08/18 06:15:24;;;;;;;12.55;9.20;;;15.10;99.90;;;;;;12526895;28;20995;-84
2021/08/18 06:21:26;;;;;;;12.13;8.30;;;14.90;99.90;;;;;;12534744;28;20052;-84
2021/08/18 06:27:30;;;;;;;10.75;8.50;;;14.80;99.90;;;;;;12529022;28;20195;-85
2021/08/18 06:33:31;;;;;;;12.45;8.10;;;15.00;99.90;;;;;;12533153;28;20073;-83
2021/08/18 06:39:34;;;;;;;8.27;5.97;;;15.00;99.90;;;;;;12540006;28;20196;-84
2021/08/18 06:45:38;;;;;;;7.93;4.80;;;15.20;99.90;;;;;;12536643;28;20037;-84
2021/08/18 06:51:40;;;;;;;6.57;4.30;;;15.40;99.90;;;;;;12536819;28;20070;-84
2021/08/18 06:57:42;;;;;;;7.47;4.45;;;15.40;99.90;;;;;;12536199;28;20045;-84
2021/08/18 07:03:44;;;;;;;7.13;4.50;;;15.20;99.90;;;;;;12542446;28;20463;-85
2021/08/18 07:09:46;;;;;;;7.80;4.28;;;15.50;99.90;;;;;;12537071;28;20063;-82
2021/08/18 07:15:51;;;;;;;5.03;3.47;;;15.60;99.90;;;;;;12540066;28;20970;-84
2021/08/18 07:21:53;;;;;;;6.15;3.80;;;15.70;99.90;;;;;;12541517;28;20131;-83
2021/08/18 07:27:54;;;;;;;8.75;3.70;;;15.70;99.90;;;;;;12530946;28;20041;-84
2021/08/18 07:33:56;;;;;;;7.18;3.75;;;15.50;99.90;;;;;;12537540;28;20078;-85
2021/08/18 07:39:59;;;;;;;6.20;3.63;;;15.60;99.90;;;;;;12536478;28;20071;-83
2021/08/18 07:46:01;;;;;;;6.72;3.67;;;15.90;99.90;;;;;;12539104;28;20048;-85
2021/08/18 07:52:04;;;;;;;5.90;3.30;;;16.10;99.90;;;;;;12540022;28;20060;-83
2021/08/18 07:58:06;;;;;;;6.90;3.50;;;16.20;99.90;;;;;;12553720;28;20059;-82
2021/08/18 08:04:08;;;;;;;5.65;3.13;;;16.20;99.90;;;;;;12528518;28;20080;-83
2021/08/18 08:10:11;;;;;;;6.80;3.10;;;16.20;99.90;;;;;;12549444;28;20053;-84
2021/08/18 08:16:13;;;;;;;4.57;3.03;;;16.30;99.90;;;;;;12528890;28;20130;-84
2021/08/18 08:22:15;;;;;;;4.20;2.85;;;16.30;99.90;;;;;;12529788;28;20048;-84
2021/08/18 08:28:17;;;;;;;7.05;3.40;;;16.30;99.90;;;;;;12537290;28;20123;-84
2021/08/18 08:34:19;;;;;;;7.30;3.35;;;16.40;99.90;;;;;;12551660;28;20051;-84
2021/08/18 08:40:21;;;;;;;6.32;3.38;;;16.40;99.90;;;;;;12532846;28;20128;-84
2021/08/18 08:46:23;;;;;;;7.40;4.05;;;16.40;99.90;;;;;;12541441;28;20045;-84
2021/08/18 08:52:26;;;;;;;7.13;3.78;;;16.40;99.90;;;;;;12533755;28;20041;-85
2021/08/18 08:58:28;;;;;;;7.72;3.80;;;16.50;99.90;;;;;;12536035;28;20162;-84
2021/08/18 09:04:34;;;;;;;6.07;4.15;;;16.50;99.90;;;;;;12539256;28;20053;-84
2021/08/18 09:10:37;;;;;;;7.75;3.78;;;16.50;99.90;;;;;;12541995;28;20049;-84
2021/08/18 09:16:39;;;;;;;8.02;4.45;;;16.40;99.90;;;;;;12542746;28;20056;-84
2021/08/18 09:23:02;;;;;;;6.75;4.20;;;16.30;99.90;;;;;;12539001;28;20045;-84
2021/08/18 09:29:04;;;;;;;6.17;3.63;;;16.60;99.90;;;;;;12538224;28;20132;-83
2021/08/18 09:35:12;;;;;;;7.38;3.78;;;16.40;99.90;;;;;;12534943;28;20120;-83
2021/08/18 09:41:17;;;;;;;6.50;4.00;;;16.20;99.90;;;;;;12525991;28;20493;-84
2021/08/18 09:47:19;;;;;;;7.35;3.75;;;16.00;99.90;;;;;;12546773;28;20063;-84
2021/08/18 09:53:24;;;;;;;7.68;3.80;;;15.90;99.90;;;;;;12534479;28;20068;-84
2021/08/18 09:59:27;;;;;;;5.13;3.42;;;16.00;99.90;;;;;;12538861;28;20067;-85
2021/08/18 10:05:30;;;;;;;8.15;3.60;;;16.20;99.90;;;;;;12537727;28;20136;-84
2021/08/18 10:11:31;;;;;;;6.00;3.50;;;16.20;99.90;;;;;;12535289;28;20147;-84
2021/08/18 10:17:40;;;;;;;5.47;3.33;;;16.30;99.90;;;;;;12532566;28;20049;-82
2021/08/18 10:23:46;;;;;;;7.82;3.90;;;16.20;99.90;;;;;;12530093;28;20040;-84
2021/08/18 10:30:24;;;;;;;8.52;4.50;;;16.00;99.90;;;;;;12545104;28;20053;-84
2021/08/18 10:36:41;;;;;;;7.35;4.45;;;15.70;99.90;;;;;;12534506;28;20128;-85
2021/08/18 10:42:44;;;;;;;10.10;4.40;;;15.80;99.90;;;;;;12530058;28;20053;-85
2021/08/18 10:48:55;;;;;;;9.52;4.22;;;15.90;99.90;;;;;;12538178;28;20131;-85
2021/08/18 10:55:05;;;;;;;4.82;3.20;;;15.80;99.90;;;;;;12536213;28;20136;-84
2021/08/18 11:01:45;;;;;;;4.50;2.67;;;15.90;99.90;;;;;;12531000;28;20480;-84
2021/08/18 11:08:00;;;;;;;6.10;2.60;;;15.90;99.90;;;;;;12538419;28;20072;-85
2021/08/18 11:14:09;;;;;;;3.42;2.22;;;16.40;99.90;;;;;;12554077;28;20037;-85
2021/08/18 11:20:22;;;;;;;6.88;2.58;;;16.70;99.90;;;;;;12533651;28;20179;-85
2021/08/18 11:26:29;;;;;;;4.35;2.80;;;16.80;99.90;;;;;;12537802;28;20045;-85
2021/08/18 11:32:31;;;;;;;6.05;2.95;;;16.80;99.90;;;;;;12533867;28;20540;-84
2021/08/18 11:38:33;;;;;;;7.38;3.20;;;17.20;99.90;;;;;;12531717;28;20088;-84
2021/08/18 11:44:34;;;;;;;5.95;3.40;;;17.20;99.90;;;;;;12535215;28;20156;-85
2021/08/18 11:50:50;;;;;;;7.35;3.08;;;17.00;99.90;;;;;;12521592;28;20143;-84
2021/08/18 11:57:01;;;;;;;6.18;3.10;;;16.90;99.90;;;;;;12532848;28;20186;-84
2021/08/18 12:03:03;;;;;;;4.30;2.67;;;17.00;99.90;;;;;;12531217;28;20140;-85
2021/08/18 12:09:20;;;;;;;6.30;2.97;;;17.00;99.90;;;;;;12527136;28;20489;-85
2021/08/18 12:15:22;;;;;;;4.38;2.47;;;17.20;99.90;;;;;;12533260;28;20077;-84
2021/08/18 12:21:27;;;;;;;5.13;2.72;;;17.60;99.90;;;;;;12528028;28;20396;-84
2021/08/18 12:27:29;;;;;;;5.10;2.05;;;18.10;99.90;;;;;;12535215;28;20097;-84
2021/08/18 12:33:31;;;;;;;2.90;1.98;;;18.50;99.90;;;;;;12532092;28;20128;-85
2021/08/18 12:39:39;;;;;;;4.15;1.80;;;18.80;99.90;;;;;;12530090;28;20060;-84
2021/08/18 12:45:48;;;;;;;2.92;1.80;;;19.00;99.90;;;;;;12537400;28;20052;-86
2021/08/18 12:51:49;;;;;;;3.58;2.10;;;19.20;99.90;;;;;;12525533;28;20172;-85
2021/08/18 12:57:52;;;;;;;4.75;1.90;;;19.40;99.90;;;;;;12532078;28;20102;-85
2021/08/18 13:03:53;;;;;;;4.18;2.30;;;19.60;99.90;;;;;;12533197;28;20045;-84
2021/08/18 13:09:56;;;;;;;3.30;1.75;;;19.40;99.90;;;;;;12528030;28;20876;-85
2021/08/18 13:15:57;;;;;;;3.20;1.83;;;19.60;99.90;;;;;;12550641;28;20051;-85
2021/08/18 13:21:59;;;;;;;3.10;1.50;;;19.70;99.90;;;;;;12536397;28;20096;-85
2021/08/18 13:28:02;;;;;;;3.70;1.85;;;19.60;99.90;;;;;;12535528;28;20049;-84
2021/08/18 13:34:06;;;;;;;3.53;1.85;;;19.30;99.90;;;;;;12544250;28;20388;-83
2021/08/18 13:40:09;;;;;;;4.63;1.48;;;19.20;99.90;;;;;;12535858;28;20138;-84
2021/08/18 13:46:11;;;;;;;2.97;1.67;;;19.10;99.90;;;;;;12535946;28;20102;-85
2021/08/18 13:52:13;;;;;;;2.67;1.40;;;19.00;99.90;;;;;;12538769;28;20044;-85
2021/08/18 13:58:15;;;;;;;2.28;1.77;;;19.00;99.90;;;;;;12535911;28;20121;-84
2021/08/18 14:04:16;;;;;;;2.95;1.50;;;19.10;99.90;;;;;;12553742;28;20114;-85
2021/08/18 14:10:19;;;;;;;2.22;1.50;;;19.10;99.90;;;;;;12528624;28;20106;-85
2021/08/18 14:16:21;;;;;;;2.90;1.40;;;19.20;99.90;;;;;;12519306;28;20045;-84
2021/08/18 14:22:23;;;;;;;2.60;1.13;;;19.30;99.90;;;;;;12528987;28;20041;-85
2021/08/18 14:28:25;;;;;;;2.08;1.27;;;19.40;99.90;;;;;;12534114;28;20106;-86
2021/08/18 14:34:28;;;;;;;1.85;1.35;;;19.20;99.90;;;;;;12534099;28;20257;-85
2021/08/18 14:40:30;;;;;;;2.85;1.15;;;19.00;99.90;;;;;;12537035;28;20152;-84
2021/08/18 14:46:32;;;;;;;2.95;1.30;;;19.00;99.90;;;;;;12519431;28;20052;-85
2021/08/18 14:52:36;;;;;;;1.67;1.20;;;18.90;99.90;;;;;;12534048;28;20056;-84
2021/08/18 14:58:37;;;;;;;3.20;1.20;;;18.80;99.90;;;;;;12531389;28;20117;-84
2021/08/18 15:04:39;;;;;;;1.42;1.00;;;19.00;99.90;;;;;;12532939;28;20132;-85
2021/08/18 15:10:48;;;;;;;3.58;1.30;;;19.10;99.90;;;;;;12539285;28;20044;-85
2021/08/18 15:16:51;;;;;;;4.45;2.38;;;19.10;99.90;;;;;;12524443;28;20049;-83
2021/08/18 15:22:53;;;;;;;4.97;3.43;;;18.60;99.90;;;;;;12525245;28;20090;-85
2021/08/18 15:28:55;;;;;;;5.32;3.67;;;18.40;99.90;;;;;;12529384;28;20064;-85
2021/08/18 15:34:57;;;;;;;6.88;5.35;;;18.40;99.90;;;;;;12518767;28;20045;-85
2021/08/18 15:40:59;;;;;;;9.23;5.70;;;18.30;99.90;;;;;;12526006;28;20041;-85
2021/08/18 15:47:01;;;;;;;9.75;8.52;;;18.20;99.90;;;;;;12534544;28;20198;-85
2021/08/18 15:53:03;;;;;;;11.02;9.73;;;18.20;99.90;;;;;;12532359;28;20041;-85
2021/08/18 15:59:05;;;;;;;11.57;10.10;;;18.10;99.90;;;;;;12525342;28;20048;-84
2021/08/18 16:05:14;;;;;;;11.88;9.30;;;18.00;99.90;;;;;;12619567;27;20499;-44
2021/08/18 16:11:16;;;;;;;10.65;9.50;;;17.80;99.90;;;;;;12609047;28;20044;-46
2021/08/18 16:17:19;;;;;;;11.60;8.85;;;17.70;99.90;;;;;;12612176;28;20044;-47
2021/08/18 16:23:21;;;;;;;10.30;8.60;;;17.70;99.90;;;;;;12582564;28;20175;-47
2021/08/18 16:29:25;;;;;;;12.98;8.40;;;17.90;99.90;;;;;;12611868;28;20052;-48
2021/08/18 16:35:27;;;;;;;10.30;9.02;;;17.70;99.90;;;;;;12608382;28;21889;-45
2021/08/18 16:41:30;;;;;;;11.63;8.95;;;17.60;99.90;;;;;;12609511;28;20101;-45
2021/08/18 16:47:33;;;;;;;10.53;8.30;;;17.60;99.90;;;;;;12609927;28;20058;-46
2021/08/18 16:53:36;;;;;;;8.98;8.02;;;17.60;99.90;;;;;;12612722;28;20044;-44
2021/08/18 16:59:38;;;;;;;7.60;6.80;;;17.60;99.90;;;;;;12601023;28;20080;-45
2021/08/18 17:05:41;;;;;;;8.55;7.18;;;17.70;99.90;;;;;;12558748;28;20045;-41
2021/08/18 17:11:43;;;;;;;7.47;6.15;;;17.60;99.90;;;;;;12554901;28;20056;-42
2021/08/18 17:17:45;;;;;;;8.70;6.32;;;17.60;99.90;;;;;;12527903;28;20072;-43
2021/08/18 17:23:47;;;;;;;8.63;5.80;;;17.60;99.90;;;;;;12528065;28;20053;-44
2021/08/18 17:29:49;;;;;;;5.97;4.30;;;17.50;99.90;;;;;;12528178;28;20044;-45
2021/08/18 17:35:51;;;;;;;5.78;4.63;;;17.50;99.90;;;;;;12527075;28;20561;-44
2021/08/18 17:41:53;;;;;;;9.05;6.53;;;17.40;99.90;;;;;;12527569;28;20049;-43
2021/08/18 17:47:55;;;;;;;8.93;6.00;;;17.20;99.90;;;;;;12529601;28;20623;-44
2021/08/18 17:53:57;;;;;;;8.40;6.53;;;17.20;99.90;;;;;;12529589;28;20068;-44
2021/08/18 17:59:59;;;;;;;10.98;8.27;;;17.00;99.90;;;;;;12511267;28;20075;-43
2021/08/18 18:06:01;;;;;;;10.70;8.20;;;17.00;99.90;;;;;;12473236;28;20490;-43
2021/08/18 18:12:05;;;;;;;11.60;9.25;;;16.90;99.90;;;;;;12475073;28;20447;-44
2021/08/18 18:18:07;;;;;;;13.00;9.82;;;16.90;99.90;;;;;;12476752;28;20064;-46
2021/08/18 18:24:10;;;;;;;15.20;10.57;;;16.90;99.90;;;;;;12508008;28;20056;-43
2021/08/18 18:30:14;;;;;;;;;;;16.80;99.90;;;;;;12530144;28;20665;-46
2021/08/18 18:36:16;;;;;;;19.00;13.32;;;16.80;99.90;;;;;;12507332;28;19932;-44
2021/08/18 18:42:21;;;;;;;17.63;14.25;;;16.80;99.90;;;;;;12523536;28;20496;-44
2021/08/18 18:48:23;;;;;;;18.65;16.63;;;16.70;99.90;;;;;;12524229;28;20057;-44
2021/08/18 18:54:25;;;;;;;20.80;17.27;;;16.70;99.90;;;;;;12524913;28;20048;-43
2021/08/18 19:00:30;;;;;;;22.10;16.58;;;16.70;99.90;;;;;;12524083;28;20103;-44
2021/08/18 19:06:33;;;;;;;23.95;18.75;;;16.70;99.90;;;;;;12523790;28;20528;-43
2021/08/18 19:12:36;;;;;;;23.88;18.80;;;16.70;99.90;;;;;;12520810;28;20053;-43
2021/08/18 19:18:38;;;;;;;22.48;19.30;;;16.70;99.90;;;;;;12519939;28;20553;-41
2021/08/18 19:24:40;;;;;;;21.88;19.30;;;16.70;99.90;;;;;;12506979;28;20106;-44
2021/08/18 19:30:44;;;;;;;21.08;18.88;;;16.70;99.90;;;;;;12518835;28;20087;-46
2021/08/18 19:36:49;;;;;;;21.13;18.52;;;16.70;99.90;;;;;;12519801;28;20136;-46
2021/08/18 19:42:51;;;;;;;21.33;18.33;;;16.60;99.90;;;;;;12517736;28;20784;-46
2021/08/18 19:48:53;;;;;;;21.52;16.85;;;16.60;99.90;;;;;;12518368;28;20080;-44
2021/08/18 19:54:55;;;;;;;21.75;16.73;;;16.60;99.90;;;;;;12517646;28;20056;-44
2021/08/18 20:00:57;;;;;;;18.58;15.20;;;16.60;99.90;;;;;;12516409;28;20457;-43
2021/08/18 20:06:59;;;;;;;18.30;15.15;;;16.60;99.90;;;;;;12519302;28;20053;-46
2021/08/18 20:13:01;;;;;;;16.40;14.40;;;16.60;99.90;;;;;;12512801;28;20095;-44
2021/08/18 20:19:04;;;;;;;15.88;13.60;;;16.70;99.90;;;;;;12518444;28;20048;-45
2021/08/18 20:25:06;;;;;;;16.30;12.57;;;16.70;99.90;;;;;;12517570;28;20080;-44
2021/08/18 20:31:08;;;;;;;16.58;11.90;;;16.70;99.90;;;;;;12518228;28;20465;-45
2021/08/18 20:37:24;;;;;;;16.15;12.60;;;16.70;99.90;;;;;;12519891;28;20484;-46
2021/08/18 20:43:26;;;;;;;15.43;12.05;;;16.60;99.90;;;;;;12520108;28;20098;-46
2021/08/18 20:49:28;;;;;;;15.55;11.48;;;16.60;99.90;;;;;;12524587;28;20117;-44
2021/08/18 20:55:34;;;;;;;13.98;11.40;;;16.50;99.90;;;;;;12525880;28;20057;-46
2021/08/18 21:01:37;;;;;;;13.88;10.60;;;16.70;99.90;;;;;;12525027;28;20102;-44
2021/08/18 21:07:39;;;;;;;14.27;11.57;;;16.70;99.90;;;;;;12526619;28;20088;-45
2021/08/18 21:13:41;;;;;;;14.90;11.05;;;16.60;99.90;;;;;;12525685;28;20086;-45
2021/08/18 21:19:43;;;;;;;12.70;10.48;;;16.50;99.90;;;;;;12523943;28;20291;-45
2021/08/18 21:25:45;;;;;;;15.27;11.25;;;16.60;99.90;;;;;;12524385;28;20075;-46
2021/08/18 21:31:47;;;;;;;16.15;10.07;;;16.60;99.90;;;;;;12522113;28;20045;-47
2021/08/18 21:37:49;;;;;;;12.05;9.00;;;16.50;99.90;;;;;;12522405;28;20515;-46
2021/08/18 21:43:51;;;;;;;10.15;8.10;;;16.50;99.90;;;;;;12522781;28;20469;-44
2021/08/18 21:49:53;;;;;;;8.70;7.45;;;16.70;99.90;;;;;;12524453;28;20489;-46
2021/08/18 21:55:55;;;;;;;9.27;7.05;;;16.70;99.90;;;;;;12520978;28;20564;-44
2021/08/18 22:01:57;;;;;;;9.88;7.00;;;16.70;99.90;;;;;;12522721;28;20053;-44
2021/08/18 22:08:00;;;;;;;12.48;6.15;;;16.70;99.90;;;;;;12519337;28;20056;-45
2021/08/18 22:14:02;;;;;;;8.23;5.82;;;16.70;99.90;;;;;;12519804;28;20459;-49
2021/08/18 22:20:05;;;;;;;6.88;5.65;;;16.70;99.90;;;;;;12522004;28;20465;-46
2021/08/18 22:26:07;;;;;;;7.88;5.88;;;16.50;99.90;;;;;;12519010;28;20678;-45
2021/08/18 22:32:29;;;;;;;8.43;5.50;;;16.60;99.90;;;;;;12520571;28;20040;-46
2021/08/18 22:38:32;;;;;;;11.45;5.93;;;16.50;99.90;;;;;;12527009;28;20325;-45
2021/08/18 22:44:34;;;;;;;7.90;5.35;;;16.70;99.90;;;;;;12524995;28;20056;-44
2021/08/18 22:50:36;;;;;;;7.53;5.18;;;16.50;99.90;;;;;;12506845;28;20128;-45
2021/08/18 22:56:37;;;;;;;9.15;5.50;;;16.40;99.90;;;;;;12524578;28;20075;-45
2021/08/18 23:02:40;;;;;;;10.13;5.50;;;16.40;99.90;;;;;;12521305;28;20041;-44
2021/08/18 23:08:42;;;;;;;8.75;5.70;;;16.30;99.90;;;;;;12524549;28;20053;-44
2021/08/18 23:14:44;;;;;;;11.25;6.35;;;16.30;99.90;;;;;;12524870;28;20061;-44
2021/08/18 23:20:51;;;;;;;10.00;6.07;;;16.20;99.90;;;;;;12524126;28;20674;-46
2021/08/18 23:26:54;;;;;;;9.45;6.03;;;16.30;99.90;;;;;;12523553;28;20132;-44
2021/08/18 23:32:58;;;;;;;12.10;6.03;;;16.40;99.90;;;;;;12522487;28;20584;-45
2021/08/18 23:39:00;;;;;;;11.45;6.70;;;16.60;99.90;;;;;;12522720;28;20044;-45
2021/08/18 23:45:03;;;;;;;10.13;6.93;;;16.50;99.90;;;;;;12520360;28;20065;-49
2021/08/18 23:51:05;;;;;;;13.05;7.00;;;16.40;99.90;;;;;;12521858;28;20248;-44
2021/08/18 23:57:07;;;;;;;11.25;7.03;;;16.60;99.90;;;;;;12523881;28;20049;-44
